sensor_id;sensor_type;location;lat;lon;timestamp;pressure;altitude;pressure_sealevel;temperature;humidity
47753;BME280;2038;51.728;6.674;2023-02-28T00:01:30;102394.84;;;1.22;94.42
47753;BME280;2038;51.728;6.674;2023-02-28T00:03:57;102400.22;;;1.25;94.39
47753;BME280;2038;51.728;6.674;2023-02-28T00:06:23;102395.47;;;1.14;94.78
47753;BME280;2038;51.728;6.674;2023-02-28T00:08:50;102398.59;;;1.06;94.75
47753;BME280;2038;51.728;6.674;2023-02-28T00:11:16;102397.50;;;1.04;94.84
47753;BME280;2038;51.728;6.674;2023-02-28T00:13:45;102395.69;;;1.03;95.27
47753;BME280;2038;51.728;6.674;2023-02-28T00:16:15;102397.28;;;1.02;94.60
47753;BME280;2038;51.728;6.674;2023-02-28T00:18:43;102396.22;;;1.00;94.80
47753;BME280;2038;51.728;6.674;2023-02-28T00:21:09;102407.84;;;1.00;95.80
47753;BME280;2038;51.728;6.674;2023-02-28T00:23:35;102405.34;;;1.00;95.90
47753;BME280;2038;51.728;6.674;2023-02-28T00:26:02;102401.72;;;0.98;95.35
47753;BME280;2038;51.728;6.674;2023-02-28T00:28:29;102401.72;;;0.98;95.08
47753;BME280;2038;51.728;6.674;2023-02-28T00:30:55;102405.13;;;0.98;95.30
47753;BME280;2038;51.728;6.674;2023-02-28T00:33:23;102407.75;;;0.92;95.41
47753;BME280;2038;51.728;6.674;2023-02-28T00:35:49;102406.16;;;0.93;95.28
47753;BME280;2038;51.728;6.674;2023-02-28T00:38:15;102407.06;;;0.93;95.26
47753;BME280;2038;51.728;6.674;2023-02-28T00:40:42;102408.47;;;0.91;95.89
47753;BME280;2038;51.728;6.674;2023-02-28T00:43:08;102420.13;;;0.91;95.58
47753;BME280;2038;51.728;6.674;2023-02-28T00:45:35;102404.66;;;0.88;95.02
47753;BME280;2038;51.728;6.674;2023-02-28T00:48:01;102409.28;;;0.85;95.47
47753;BME280;2038;51.728;6.674;2023-02-28T00:50:27;102409.28;;;0.85;95.72
47753;BME280;2038;51.728;6.674;2023-02-28T00:52:53;102409.28;;;0.85;95.61
47753;BME280;2038;51.728;6.674;2023-02-28T00:55:19;102406.38;;;0.82;95.50
47753;BME280;2038;51.728;6.674;2023-02-28T00:57:46;102405.47;;;0.81;96.51
47753;BME280;2038;51.728;6.674;2023-02-28T01:00:12;102404.75;;;0.82;96.45
47753;BME280;2038;51.728;6.674;2023-02-28T01:02:39;102407.66;;;0.85;96.04
47753;BME280;2038;51.728;6.674;2023-02-28T01:05:05;102404.44;;;0.99;95.80
47753;BME280;2038;51.728;6.674;2023-02-28T01:07:32;102404.44;;;0.99;96.01
47753;BME280;2038;51.728;6.674;2023-02-28T01:09:58;102410.47;;;0.81;95.69
47753;BME280;2038;51.728;6.674;2023-02-28T01:12:24;102412.06;;;0.93;95.87
47753;BME280;2038;51.728;6.674;2023-02-28T01:14:50;102415.00;;;0.84;95.77
47753;BME280;2038;51.728;6.674;2023-02-28T01:17:16;102410.47;;;0.81;96.28
47753;BME280;2038;51.728;6.674;2023-02-28T01:19:42;102412.28;;;0.82;96.08
47753;BME280;2038;51.728;6.674;2023-02-28T01:22:08;102412.28;;;0.82;96.43
47753;BME280;2038;51.728;6.674;2023-02-28T01:24:34;102413.97;;;0.89;96.04
47753;BME280;2038;51.728;6.674;2023-02-28T01:27:01;102416.69;;;0.90;96.30
47753;BME280;2038;51.728;6.674;2023-02-28T01:29:27;102410.38;;;0.87;96.20
47753;BME280;2038;51.728;6.674;2023-02-28T01:31:53;102416.78;;;0.85;95.47
47753;BME280;2038;51.728;6.674;2023-02-28T01:34:19;102409.09;;;0.83;95.88
47753;BME280;2038;51.728;6.674;2023-02-28T01:36:46;102410.88;;;0.84;96.38
47753;BME280;2038;51.728;6.674;2023-02-28T01:39:12;102408.34;;;0.84;95.52
47753;BME280;2038;51.728;6.674;2023-02-28T01:41:38;102410.78;;;0.77;96.52
47753;BME280;2038;51.728;6.674;2023-02-28T01:47:33;102409.19;;;0.78;96.87
47753;BME280;2038;51.728;6.674;2023-02-28T01:50:08;102407.81;;;0.67;97.39
47753;BME280;2038;51.728;6.674;2023-02-28T01:52:39;102408.41;;;0.72;96.38
47753;BME280;2038;51.728;6.674;2023-02-28T01:55:07;102405.91;;;0.72;96.71
47753;BME280;2038;51.728;6.674;2023-02-28T01:57:46;102406.59;;;0.71;97.21
47753;BME280;2038;51.728;6.674;2023-02-28T02:00:23;102406.97;;;0.74;97.19
47753;BME280;2038;51.728;6.674;2023-02-28T02:03:00;102395.72;;;0.77;96.99
47753;BME280;2038;51.728;6.674;2023-02-28T02:05:37;102395.94;;;0.79;96.79
47753;BME280;2038;51.728;6.674;2023-02-28T02:08:10;102386.81;;;0.79;96.24
47753;BME280;2038;51.728;6.674;2023-02-28T02:11:00;102385.50;;;0.76;95.45
47753;BME280;2038;51.728;6.674;2023-02-28T02:14:12;102387.28;;;0.77;96.35
47753;BME280;2038;51.728;6.674;2023-02-28T02:17:40;102388.03;;;0.76;96.12
47753;BME280;2038;51.728;6.674;2023-02-28T02:30:20;102376.88;;;0.74;95.69
47753;BME280;2038;51.728;6.674;2023-02-28T02:36:22;102377.31;;;0.64;95.58
47753;BME280;2038;51.728;6.674;2023-02-28T02:38:57;102376.28;;;0.57;95.14
47753;BME280;2038;51.728;6.674;2023-02-28T02:42:11;102372.91;;;0.56;94.63
47753;BME280;2038;51.728;6.674;2023-02-28T02:45:19;102360.06;;;0.47;95.69
47753;BME280;2038;51.728;6.674;2023-02-28T02:47:50;102370.19;;;0.42;95.60
47753;BME280;2038;51.728;6.674;2023-02-28T02:50:33;102366.16;;;0.37;95.35
47753;BME280;2038;51.728;6.674;2023-02-28T02:53:05;102364.69;;;0.32;96.07
47753;BME280;2038;51.728;6.674;2023-02-28T02:55:41;102363.34;;;0.41;95.57
47753;BME280;2038;51.728;6.674;2023-02-28T02:58:16;102375.19;;;0.29;95.40
47753;BME280;2038;51.728;6.674;2023-02-28T03:00:53;102372.19;;;0.19;97.11
47753;BME280;2038;51.728;6.674;2023-02-28T03:03:23;102386.63;;;0.15;97.48
47753;BME280;2038;51.728;6.674;2023-02-28T03:05:56;102378.50;;;0.10;97.35
47753;BME280;2038;51.728;6.674;2023-02-28T03:08:24;102380.00;;;0.03;97.19
47753;BME280;2038;51.728;6.674;2023-02-28T03:10:56;102372.66;;;0.04;97.50
47753;BME280;2038;51.728;6.674;2023-02-28T03:14:24;102377.56;;;-0.03;97.87
47753;BME280;2038;51.728;6.674;2023-02-28T03:17:15;102377.13;;;-0.19;97.68
47753;BME280;2038;51.728;6.674;2023-02-28T03:20:42;102372.13;;;-0.19;97.82
47753;BME280;2038;51.728;6.674;2023-02-28T03:23:33;102377.13;;;-0.19;97.61
47753;BME280;2038;51.728;6.674;2023-02-28T03:26:23;102386.47;;;-0.18;97.94
47753;BME280;2038;51.728;6.674;2023-02-28T03:29:10;102375.13;;;-0.21;97.61
47753;BME280;2038;51.728;6.674;2023-02-28T03:31:58;102378.94;;;-0.18;97.94
47753;BME280;2038;51.728;6.674;2023-02-28T03:34:36;102378.97;;;-0.05;97.77
47753;BME280;2038;51.728;6.674;2023-02-28T03:37:19;102377.38;;;-0.05;98.39
47753;BME280;2038;51.728;6.674;2023-02-28T03:40:00;102375.06;;;-0.03;98.03
47753;BME280;2038;51.728;6.674;2023-02-28T03:42:36;102366.44;;;-0.05;98.67
47753;BME280;2038;51.728;6.674;2023-02-28T03:45:19;102371.25;;;-0.07;98.21
47753;BME280;2038;51.728;6.674;2023-02-28T03:48:05;102373.72;;;-0.19;98.03
47753;BME280;2038;51.728;6.674;2023-02-28T03:50:50;102371.06;;;-0.39;99.84
47753;BME280;2038;51.728;6.674;2023-02-28T03:53:36;102373.78;;;-0.37;99.91
47753;BME280;2038;51.728;6.674;2023-02-28T03:56:20;102376.59;;;-0.41;99.43
47753;BME280;2038;51.728;6.674;2023-02-28T03:59:16;102379.38;;;-0.45;99.12
47753;BME280;2038;51.728;6.674;2023-02-28T04:01:52;102382.16;;;-0.50;99.22
47753;BME280;2038;51.728;6.674;2023-02-28T04:04:21;102380.13;;;-0.52;99.16
47753;BME280;2038;51.728;6.674;2023-02-28T04:06:51;102378.13;;;-0.55;98.87
47753;BME280;2038;51.728;6.674;2023-02-28T04:09:18;102387.06;;;-0.57;98.68
47753;BME280;2038;51.728;6.674;2023-02-28T04:11:52;102384.44;;;-0.51;98.90
47753;BME280;2038;51.728;6.674;2023-02-28T04:14:18;102385.34;;;-0.51;98.27
47753;BME280;2038;51.728;6.674;2023-02-28T04:16:45;102383.13;;;-0.55;97.78
47753;BME280;2038;51.728;6.674;2023-02-28T04:19:12;102378.00;;;-0.62;98.68
47753;BME280;2038;51.728;6.674;2023-02-28T04:21:44;102373.69;;;-0.63;98.27
47753;BME280;2038;51.728;6.674;2023-02-28T04:24:15;102377.31;;;-0.61;99.38
47753;BME280;2038;51.728;6.674;2023-02-28T04:26:50;102381.19;;;-0.63;98.36
47753;BME280;2038;51.728;6.674;2023-02-28T04:29:35;102373.00;;;-0.62;98.70
47753;BME280;2038;51.728;6.674;2023-02-28T04:32:03;102381.41;;;-0.61;98.57
47753;BME280;2038;51.728;6.674;2023-02-28T04:34:32;102380.75;;;-0.48;98.77
47753;BME280;2038;51.728;6.674;2023-02-28T04:37:01;102380.91;;;-0.40;97.28
47753;BME280;2038;51.728;6.674;2023-02-28T04:39:34;102386.09;;;-0.39;97.91
47753;BME280;2038;51.728;6.674;2023-02-28T04:42:01;102377.69;;;-0.39;96.79
47753;BME280;2038;51.728;6.674;2023-02-28T04:44:28;102387.34;;;-0.48;96.69
47753;BME280;2038;51.728;6.674;2023-02-28T04:46:53;102386.78;;;-0.53;98.01
47753;BME280;2038;51.728;6.674;2023-02-28T04:49:19;102389.38;;;-0.45;96.76
47753;BME280;2038;51.728;6.674;2023-02-28T04:51:46;102393.50;;;-0.46;97.35
47753;BME280;2038;51.728;6.674;2023-02-28T04:54:12;102392.66;;;-0.52;97.33
47753;BME280;2038;51.728;6.674;2023-02-28T04:56:38;102391.78;;;-0.53;96.98
47753;BME280;2038;51.728;6.674;2023-02-28T04:59:04;102396.56;;;-0.54;97.21
47753;BME280;2038;51.728;6.674;2023-02-28T05:01:33;102382.44;;;-0.54;97.40
47753;BME280;2038;51.728;6.674;2023-02-28T05:04:02;102382.72;;;-0.58;97.23
47753;BME280;2038;51.728;6.674;2023-02-28T05:06:32;102394.28;;;-0.53;96.96
47753;BME280;2038;51.728;6.674;2023-02-28T05:08:59;102392.19;;;-0.50;96.72
47753;BME280;2038;51.728;6.674;2023-02-28T05:11:29;102391.06;;;-0.52;97.10
47753;BME280;2038;51.728;6.674;2023-02-28T05:14:05;102396.69;;;-0.47;96.89
47753;BME280;2038;51.728;6.674;2023-02-28T05:16:37;102395.78;;;-0.48;95.84
47753;BME280;2038;51.728;6.674;2023-02-28T05:19:03;102397.53;;;-0.59;96.10
47753;BME280;2038;51.728;6.674;2023-02-28T05:21:30;102407.66;;;-0.65;97.47
47753;BME280;2038;51.728;6.674;2023-02-28T05:23:59;102404.69;;;-0.68;97.46
47753;BME280;2038;51.728;6.674;2023-02-28T05:26:33;102408.22;;;-0.73;96.78
47753;BME280;2038;51.728;6.674;2023-02-28T05:29:00;102413.78;;;-0.81;96.70
47753;BME280;2038;51.728;6.674;2023-02-28T05:31:26;102411.72;;;-0.83;97.40
47753;BME280;2038;51.728;6.674;2023-02-28T05:33:52;102411.31;;;-0.86;97.55
47753;BME280;2038;51.728;6.674;2023-02-28T05:36:18;102421.63;;;-0.72;96.96
47753;BME280;2038;51.728;6.674;2023-02-28T05:38:50;102418.41;;;-0.71;97.01
47753;BME280;2038;51.728;6.674;2023-02-28T05:41:18;102418.13;;;-0.67;96.67
47753;BME280;2038;51.728;6.674;2023-02-28T05:43:46;102425.91;;;-0.71;96.20
47753;BME280;2038;51.728;6.674;2023-02-28T05:46:13;102430.47;;;-0.69;97.10
47753;BME280;2038;51.728;6.674;2023-02-28T05:48:41;102427.19;;;-0.62;95.78
47753;BME280;2038;51.728;6.674;2023-02-28T05:51:09;102422.31;;;-0.73;97.00
47753;BME280;2038;51.728;6.674;2023-02-28T05:53:36;102430.28;;;-0.76;97.06
47753;BME280;2038;51.728;6.674;2023-02-28T05:56:03;102431.84;;;-0.71;96.05
47753;BME280;2038;51.728;6.674;2023-02-28T05:58:29;102421.53;;;-0.67;95.79
47753;BME280;2038;51.728;6.674;2023-02-28T06:01:00;102429.06;;;-0.67;96.20
47753;BME280;2038;51.728;6.674;2023-02-28T06:03:43;102429.97;;;-0.66;95.90
47753;BME280;2038;51.728;6.674;2023-02-28T06:06:09;102429.47;;;-0.64;95.51
47753;BME280;2038;51.728;6.674;2023-02-28T06:08:35;102431.06;;;-0.64;95.83
47753;BME280;2038;51.728;6.674;2023-02-28T06:11:04;102434.56;;;-0.69;95.95
47753;BME280;2038;51.728;6.674;2023-02-28T06:13:29;102427.94;;;-0.69;96.02
47753;BME280;2038;51.728;6.674;2023-02-28T06:15:55;102428.88;;;-0.68;95.55
47753;BME280;2038;51.728;6.674;2023-02-28T06:18:21;102436.66;;;-0.72;95.46
47753;BME280;2038;51.728;6.674;2023-02-28T06:20:54;102440.03;;;-0.72;96.22
47753;BME280;2038;51.728;6.674;2023-02-28T06:23:21;102446.09;;;-0.82;95.28
47753;BME280;2038;51.728;6.674;2023-02-28T06:25:48;102443.22;;;-0.91;96.22
47753;BME280;2038;51.728;6.674;2023-02-28T06:28:15;102443.72;;;-0.93;96.82
47753;BME280;2038;51.728;6.674;2023-02-28T06:30:41;102445.31;;;-0.94;96.58
47753;BME280;2038;51.728;6.674;2023-02-28T06:33:07;102445.31;;;-0.94;96.81
47753;BME280;2038;51.728;6.674;2023-02-28T06:35:32;102444.19;;;-0.96;96.31
47753;BME280;2038;51.728;6.674;2023-02-28T06:37:58;102446.63;;;-0.90;96.00
47753;BME280;2038;51.728;6.674;2023-02-28T06:40:24;102448.31;;;-0.78;95.42
47753;BME280;2038;51.728;6.674;2023-02-28T06:42:50;102448.09;;;-0.80;95.57
47753;BME280;2038;51.728;6.674;2023-02-28T06:45:15;102454.72;;;-0.80;95.74
47753;BME280;2038;51.728;6.674;2023-02-28T06:47:41;102448.53;;;-0.77;96.12
47753;BME280;2038;51.728;6.674;2023-02-28T06:50:11;102453.09;;;-0.80;95.64
47753;BME280;2038;51.728;6.674;2023-02-28T06:52:38;102454.63;;;-0.75;96.47
47753;BME280;2038;51.728;6.674;2023-02-28T06:55:06;102458.03;;;-0.74;95.66
47753;BME280;2038;51.728;6.674;2023-02-28T06:57:35;102451.81;;;-0.65;95.79
47753;BME280;2038;51.728;6.674;2023-02-28T07:00:07;102458.47;;;-0.53;95.47
47753;BME280;2038;51.728;6.674;2023-02-28T07:02:36;102456.31;;;-0.44;95.24
47753;BME280;2038;51.728;6.674;2023-02-28T07:05:06;102458.03;;;-0.38;95.65
47753;BME280;2038;51.728;6.674;2023-02-28T07:07:32;102456.06;;;-0.28;95.81
47753;BME280;2038;51.728;6.674;2023-02-28T07:09:58;102461.91;;;-0.22;95.12
47753;BME280;2038;51.728;6.674;2023-02-28T07:12:24;102464.13;;;-0.18;96.18
47753;BME280;2038;51.728;6.674;2023-02-28T07:14:50;102463.44;;;-0.17;95.71
47753;BME280;2038;51.728;6.674;2023-02-28T07:17:16;102468.56;;;-0.10;96.60
47753;BME280;2038;51.728;6.674;2023-02-28T07:19:42;102467.16;;;-0.08;96.61
47753;BME280;2038;51.728;6.674;2023-02-28T07:22:07;102471.13;;;0.03;96.23
47753;BME280;2038;51.728;6.674;2023-02-28T07:24:34;102471.31;;;0.05;96.33
47753;BME280;2038;51.728;6.674;2023-02-28T07:27:00;102470.44;;;0.17;96.91
47753;BME280;2038;51.728;6.674;2023-02-28T07:29:27;102476.69;;;0.26;96.12
47753;BME280;2038;51.728;6.674;2023-02-28T07:31:53;102475.19;;;0.33;97.41
47753;BME280;2038;51.728;6.674;2023-02-28T07:34:20;102483.72;;;0.41;96.34
47753;BME280;2038;51.728;6.674;2023-02-28T07:36:46;102484.34;;;0.45;96.75
47753;BME280;2038;51.728;6.674;2023-02-28T07:39:12;102488.06;;;0.55;96.40
47753;BME280;2038;51.728;6.674;2023-02-28T07:41:38;102488.69;;;0.59;95.92
47753;BME280;2038;51.728;6.674;2023-02-28T07:44:10;102486.19;;;0.72;95.50
47753;BME280;2038;51.728;6.674;2023-02-28T07:46:36;102493.19;;;1.00;94.60
47753;BME280;2038;51.728;6.674;2023-02-28T07:49:03;102487.88;;;0.91;94.18
47753;BME280;2038;51.728;6.674;2023-02-28T07:51:30;102489.97;;;1.01;94.37
47753;BME280;2038;51.728;6.674;2023-02-28T07:53:57;102489.75;;;1.24;92.96
47753;BME280;2038;51.728;6.674;2023-02-28T07:56:23;102489.63;;;1.30;92.21
47753;BME280;2038;51.728;6.674;2023-02-28T07:58:49;102489.56;;;1.23;92.95
47753;BME280;2038;51.728;6.674;2023-02-28T08:01:15;102493.56;;;1.28;93.75
47753;BME280;2038;51.728;6.674;2023-02-28T08:03:41;102490.63;;;1.37;93.02
47753;BME280;2038;51.728;6.674;2023-02-28T08:06:17;102492.72;;;1.47;92.11
47753;BME280;2038;51.728;6.674;2023-02-28T08:08:44;102496.59;;;1.58;91.17
47753;BME280;2038;51.728;6.674;2023-02-28T08:11:11;102493.97;;;1.63;91.40
47753;BME280;2038;51.728;6.674;2023-02-28T08:13:36;102491.53;;;1.70;90.75
47753;BME280;2038;51.728;6.674;2023-02-28T08:16:02;102492.34;;;1.76;89.96
47753;BME280;2038;51.728;6.674;2023-02-28T08:18:28;102491.16;;;1.87;89.98
47753;BME280;2038;51.728;6.674;2023-02-28T08:20:54;102490.00;;;1.98;90.41
47753;BME280;2038;51.728;6.674;2023-02-28T08:23:20;102498.06;;;2.34;88.54
47753;BME280;2038;51.728;6.674;2023-02-28T08:25:54;102495.75;;;2.36;88.09
47753;BME280;2038;51.728;6.674;2023-02-28T08:28:22;102492.16;;;2.41;86.78
47753;BME280;2038;51.728;6.674;2023-02-28T08:30:48;102494.03;;;2.49;86.83
47753;BME280;2038;51.728;6.674;2023-02-28T08:33:14;102495.88;;;2.57;86.88
47753;BME280;2038;51.728;6.674;2023-02-28T08:35:40;102497.16;;;2.61;86.95
47753;BME280;2038;51.728;6.674;2023-02-28T08:38:06;102492.72;;;2.65;87.17
47753;BME280;2038;51.728;6.674;2023-02-28T08:40:32;102496.91;;;2.72;86.22
47753;BME280;2038;51.728;6.674;2023-02-28T08:42:58;102499.59;;;2.73;82.87
47753;BME280;2038;51.728;6.674;2023-02-28T08:45:25;102498.59;;;2.86;81.76
47753;BME280;2038;51.728;6.674;2023-02-28T08:47:51;102499.94;;;2.96;82.95
47753;BME280;2038;51.728;6.674;2023-02-28T08:50:21;102502.28;;;3.02;81.43
47753;BME280;2038;51.728;6.674;2023-02-28T08:52:47;102506.00;;;3.25;81.09
47753;BME280;2038;51.728;6.674;2023-02-28T08:55:13;102499.16;;;3.24;80.02
47753;BME280;2038;51.728;6.674;2023-02-28T08:57:40;102499.22;;;3.38;79.67
47753;BME280;2038;51.728;6.674;2023-02-28T09:00:06;102496.19;;;3.48;80.75
47753;BME280;2038;51.728;6.674;2023-02-28T09:02:33;102504.31;;;3.52;79.59
47753;BME280;2038;51.728;6.674;2023-02-28T09:04:59;102503.44;;;3.59;79.49
47753;BME280;2038;51.728;6.674;2023-02-28T09:07:25;102506.28;;;3.55;79.10
47753;BME280;2038;51.728;6.674;2023-02-28T09:09:51;102500.91;;;3.59;78.49
47753;BME280;2038;51.728;6.674;2023-02-28T09:12:34;102499.84;;;3.64;77.70
47753;BME280;2038;51.728;6.674;2023-02-28T09:15:01;102491.75;;;3.66;76.08
47753;BME280;2038;51.728;6.674;2023-02-28T09:17:28;102502.22;;;3.76;76.72
47753;BME280;2038;51.728;6.674;2023-02-28T09:19:53;102494.66;;;3.76;74.18
47753;BME280;2038;51.728;6.674;2023-02-28T09:22:19;102494.31;;;3.81;75.34
47753;BME280;2038;51.728;6.674;2023-02-28T09:24:45;102488.19;;;3.86;75.12
47753;BME280;2038;51.728;6.674;2023-02-28T09:27:11;102488.22;;;3.93;74.94
47753;BME280;2038;51.728;6.674;2023-02-28T09:29:37;102484.44;;;3.96;73.00
47753;BME280;2038;51.728;6.674;2023-02-28T09:32:03;102489.09;;;3.93;72.63
47753;BME280;2038;51.728;6.674;2023-02-28T09:34:31;102486.94;;;4.17;70.55
47753;BME280;2038;51.728;6.674;2023-02-28T09:36:57;102486.06;;;4.24;69.19
47753;BME280;2038;51.728;6.674;2023-02-28T09:39:23;102490.75;;;4.28;69.95
47753;BME280;2038;51.728;6.674;2023-02-28T09:41:53;102487.53;;;4.29;69.87
47753;BME280;2038;51.728;6.674;2023-02-28T09:44:41;102481.00;;;4.38;70.25
47753;BME280;2038;51.728;6.674;2023-02-28T09:47:26;102492.34;;;4.42;67.99
47753;BME280;2038;51.728;6.674;2023-02-28T09:50:27;102485.88;;;4.37;65.82
47753;BME280;2038;51.728;6.674;2023-02-28T09:53:31;102493.09;;;4.48;66.57
47753;BME280;2038;51.728;6.674;2023-02-28T09:56:06;102491.09;;;4.52;65.47
47753;BME280;2038;51.728;6.674;2023-02-28T09:59:22;102491.28;;;4.47;64.91
47753;BME280;2038;51.728;6.674;2023-02-28T10:04:56;102487.84;;;4.67;65.15
47753;BME280;2038;51.728;6.674;2023-02-28T10:08:11;102482.97;;;4.69;63.91
47753;BME280;2038;51.728;6.674;2023-02-28T10:10:51;102489.25;;;4.80;62.76
47753;BME280;2038;51.728;6.674;2023-02-28T10:13:34;102477.16;;;4.70;63.72
47753;BME280;2038;51.728;6.674;2023-02-28T10:16:13;102484.56;;;4.76;63.71
47753;BME280;2038;51.728;6.674;2023-02-28T10:19:03;102468.47;;;4.96;64.33
47753;BME280;2038;51.728;6.674;2023-02-28T10:21:42;102476.19;;;4.98;64.38
47753;BME280;2038;51.728;6.674;2023-02-28T10:24:37;102477.13;;;4.91;63.77
47753;BME280;2038;51.728;6.674;2023-02-28T10:27:21;102481.47;;;4.78;63.70
47753;BME280;2038;51.728;6.674;2023-02-28T10:29:55;102471.53;;;4.87;63.28
47753;BME280;2038;51.728;6.674;2023-02-28T10:32:32;102462.84;;;4.99;63.26
47753;BME280;2038;51.728;6.674;2023-02-28T10:37:43;102474.91;;;5.08;62.29
47753;BME280;2038;51.728;6.674;2023-02-28T10:40:34;102472.41;;;5.08;62.49
47753;BME280;2038;51.728;6.674;2023-02-28T10:43:18;102463.34;;;5.17;61.90
47753;BME280;2038;51.728;6.674;2023-02-28T10:45:59;102462.94;;;5.29;63.23
47753;BME280;2038;51.728;6.674;2023-02-28T10:51:10;102465.59;;;5.37;62.53
47753;BME280;2038;51.728;6.674;2023-02-28T10:53:45;102471.41;;;5.22;61.41
47753;BME280;2038;51.728;6.674;2023-02-28T10:56:19;102465.13;;;5.18;62.70
47753;BME280;2038;51.728;6.674;2023-02-28T11:07:31;102461.19;;;5.06;61.15
47753;BME280;2038;51.728;6.674;2023-02-28T11:09:58;102455.16;;;5.27;62.42
47753;BME280;2038;51.728;6.674;2023-02-28T11:12:33;102449.22;;;5.19;61.41
47753;BME280;2038;51.728;6.674;2023-02-28T11:15:26;102459.78;;;5.01;61.50
47753;BME280;2038;51.728;6.674;2023-02-28T11:18:00;102460.31;;;4.99;61.62
47753;BME280;2038;51.728;6.674;2023-02-28T11:20:33;102460.81;;;5.17;63.83
47753;BME280;2038;51.728;6.674;2023-02-28T11:23:02;102452.78;;;5.36;63.28
47753;BME280;2038;51.728;6.674;2023-02-28T11:25:34;102450.47;;;5.23;61.76
47753;BME280;2038;51.728;6.674;2023-02-28T11:28:06;102447.91;;;5.37;62.87
47753;BME280;2038;51.728;6.674;2023-02-28T11:33:51;102454.47;;;5.21;62.40
47753;BME280;2038;51.728;6.674;2023-02-28T11:36:27;102452.31;;;5.17;62.97
47753;BME280;2038;51.728;6.674;2023-02-28T11:38:59;102449.31;;;5.05;63.50
47753;BME280;2038;51.728;6.674;2023-02-28T11:42:07;102456.28;;;5.15;62.81
47753;BME280;2038;51.728;6.674;2023-02-28T11:44:59;102443.97;;;5.25;62.52
47753;BME280;2038;51.728;6.674;2023-02-28T11:47:32;102442.31;;;5.26;62.60
47753;BME280;2038;51.728;6.674;2023-02-28T11:50:20;102448.38;;;5.42;63.10
47753;BME280;2038;51.728;6.674;2023-02-28T11:53:17;102455.97;;;5.49;62.63
47753;BME280;2038;51.728;6.674;2023-02-28T11:55:49;102444.84;;;5.62;63.25
47753;BME280;2038;51.728;6.674;2023-02-28T11:58:45;102445.28;;;5.51;63.01
47753;BME280;2038;51.728;6.674;2023-02-28T12:02:04;102430.41;;;5.61;62.97
47753;BME280;2038;51.728;6.674;2023-02-28T12:11:52;102430.69;;;5.49;62.61
47753;BME280;2038;51.728;6.674;2023-02-28T12:14:42;102428.66;;;5.53;62.85
47753;BME280;2038;51.728;6.674;2023-02-28T12:17:51;102403.47;;;5.62;62.86
47753;BME280;2038;51.728;6.674;2023-02-28T12:20:51;102410.22;;;5.54;62.68
47753;BME280;2038;51.728;6.674;2023-02-28T12:23:56;102412.13;;;5.64;62.14
47753;BME280;2038;51.728;6.674;2023-02-28T12:26:38;102403.25;;;5.68;63.22
47753;BME280;2038;51.728;6.674;2023-02-28T12:29:28;102397.81;;;5.49;63.03
47753;BME280;2038;51.728;6.674;2023-02-28T12:32:11;102385.22;;;5.64;62.08
47753;BME280;2038;51.728;6.674;2023-02-28T12:34:52;102387.31;;;5.76;63.16
47753;BME280;2038;51.728;6.674;2023-02-28T12:37:38;102383.47;;;5.79;62.19
47753;BME280;2038;51.728;6.674;2023-02-28T12:40:17;102388.69;;;5.88;62.78
47753;BME280;2038;51.728;6.674;2023-02-28T12:42:54;102387.63;;;5.79;62.09
47753;BME280;2038;51.728;6.674;2023-02-28T12:45:36;102377.38;;;5.77;62.82
47753;BME280;2038;51.728;6.674;2023-02-28T12:48:15;102372.13;;;5.98;63.09
47753;BME280;2038;51.728;6.674;2023-02-28T12:50:54;102372.19;;;5.91;64.18
47753;BME280;2038;51.728;6.674;2023-02-28T12:57:30;102360.63;;;5.93;63.11
47753;BME280;2038;51.728;6.674;2023-02-28T13:00:25;102373.03;;;5.99;63.26
47753;BME280;2038;51.728;6.674;2023-02-28T13:03:32;102365.31;;;5.97;63.64
47753;BME280;2038;51.728;6.674;2023-02-28T13:06:42;102358.75;;;5.99;63.48
47753;BME280;2038;51.728;6.674;2023-02-28T13:09:35;102365.84;;;5.95;63.34
47753;BME280;2038;51.728;6.674;2023-02-28T13:12:14;102357.19;;;5.86;62.36
47753;BME280;2038;51.728;6.674;2023-02-28T13:14:42;102346.09;;;5.99;63.63
47753;BME280;2038;51.728;6.674;2023-02-28T13:19:57;102344.06;;;6.04;62.66
47753;BME280;2038;51.728;6.674;2023-02-28T13:22:46;102335.41;;;6.02;61.50
47753;BME280;2038;51.728;6.674;2023-02-28T13:28:13;102335.06;;;5.99;62.97
47753;BME280;2038;51.728;6.674;2023-02-28T13:31:16;102337.53;;;6.06;63.12
47753;BME280;2038;51.728;6.674;2023-02-28T13:38:46;102328.66;;;6.09;63.28
47753;BME280;2038;51.728;6.674;2023-02-28T13:44:17;102323.22;;;6.29;64.85
47753;BME280;2038;51.728;6.674;2023-02-28T13:55:37;102327.75;;;5.93;63.24
47753;BME280;2038;51.728;6.674;2023-02-28T13:58:41;102323.22;;;5.91;62.98
47753;BME280;2038;51.728;6.674;2023-02-28T14:04:46;102322.72;;;6.25;63.03
47753;BME280;2038;51.728;6.674;2023-02-28T14:07:27;102319.69;;;6.20;63.07
47753;BME280;2038;51.728;6.674;2023-02-28T14:10:04;102324.84;;;6.29;63.75
47753;BME280;2038;51.728;6.674;2023-02-28T14:15:41;102312.50;;;6.32;62.40
47753;BME280;2038;51.728;6.674;2023-02-28T14:18:32;102316.66;;;6.31;64.22
47753;BME280;2038;51.728;6.674;2023-02-28T14:24:20;102312.72;;;6.26;63.08
47753;BME280;2038;51.728;6.674;2023-02-28T14:27:40;102306.63;;;6.24;63.66
47753;BME280;2038;51.728;6.674;2023-02-28T14:36:41;102312.00;;;6.27;63.51
47753;BME280;2038;51.728;6.674;2023-02-28T14:39:21;102317.78;;;6.26;63.75
47753;BME280;2038;51.728;6.674;2023-02-28T14:41:49;102327.06;;;6.26;63.12
47753;BME280;2038;51.728;6.674;2023-02-28T14:44:25;102319.06;;;6.30;63.05
47753;BME280;2038;51.728;6.674;2023-02-28T14:46:59;102311.47;;;6.30;64.37
47753;BME280;2038;51.728;6.674;2023-02-28T14:49:45;102313.63;;;6.27;63.94
47753;BME280;2038;51.728;6.674;2023-02-28T14:52:19;102305.53;;;6.22;64.39
47753;BME280;2038;51.728;6.674;2023-02-28T14:55:04;102312.81;;;6.19;65.12
47753;BME280;2038;51.728;6.674;2023-02-28T14:57:42;102312.19;;;6.29;64.74
47753;BME280;2038;51.728;6.674;2023-02-28T15:00:28;102309.97;;;6.16;65.11
47753;BME280;2038;51.728;6.674;2023-02-28T15:02:58;102304.59;;;6.13;67.31
47753;BME280;2038;51.728;6.674;2023-02-28T15:05:33;102300.66;;;6.08;66.22
47753;BME280;2038;51.728;6.674;2023-02-28T15:08:13;102296.31;;;6.23;66.58
47753;BME280;2038;51.728;6.674;2023-02-28T15:10:57;102297.81;;;6.21;65.42
47753;BME280;2038;51.728;6.674;2023-02-28T15:13:49;102295.41;;;6.22;66.04